Aérodrome :
LOGIN :

S'inscrire | Disclaimer

   EN    FR    IT 

 










Légende :    VFR   VFR Marginal   IFR   IFR Intensif   IFR Très Intensif
Visi : 
Plafond : 
>= 8 km
>= 3000ft
5 à 8 km
1000 à 3000 ft
1500m à 5 km
500 à 1000 ft
800 à 1500m
200 à 500 ft
< 800m
< 200 ft
Symboles :   Orages  Brouillard  Fortes neiges  Fortes précipitations  Vent > 20 kt
SIGMETs :   Divers  Orages  Givrage  Turbulence  Onde Orograph.  Cendres Volcan.






- Altitude de l'aérodrome : 291 ft
- Code IATA : ORY


LFPO - Paris-Orly

DERNIER METAR :
  • 271100Z VRB03KT CAVOK 09/06 Q1017 TEMPO 4000 BR

METARs EXPIRÉS :
  • 271030Z 10003KT 060V120 9000 NSC 08/06 Q1017 TEMPO 4000 BR
  • 271000Z 09004KT 060V120 9000 NSC 08/06 Q1017 TEMPO 4000 BR
  • 270930Z 08003KT 9000 NSC 07/05 Q1017 TEMPO 4000 BR
  • 270900Z 10003KT 7000 NSC 07/05 Q1017 TEMPO 4000 BR
  • 270830Z VRB03KT 7000 NSC 07/05 Q1018 TEMPO 4000 BR
  • 270800Z 07003KT 7000 NSC 07/05 Q1017 TEMPO 4000 BR

TAF TAF LFPO
Valide du 27 à 06h jusqu'au 28 à 12h UTC


270500Z 2706/2812 04005KT CAVOK
PROB40
TEMPO 2706/2709 4000 BR
TEMPO 2721/2809 3000 BR
PROB40
TEMPO 2800/2806 0400 FG VV///
ATIS : +33 1 49 75 65 80



MET'MAP, la Météo Aéronautique d'un coup d'oeil ! - Copyright ORBIFLY Décembre 2007 - Disclaimer

ORBIFLY MET'MAP TEAM :

Programmation & Développement : Alexandra Zaïnal
Sur une idée originale de : Baudouin d'Aumeries
Assistance à la programmation : Marc-Olivier Méhu
Soutien technique & logistique : Manuel Goepfert

Contact : metmap@orbifly.com




SOURCES & CREDITS :

   NOAA